sensor_id;sensor_type;location;lat;lon;timestamp;P1;durP1;ratioP1;P2;durP2;ratioP2
59239;SDS011;45010;53.640;10.578;2023-05-15T00:00:33;3.45;;;3.13;;
59239;SDS011;45010;53.640;10.578;2023-05-15T00:03:33;3.13;;;2.28;;
59239;SDS011;45010;53.640;10.578;2023-05-15T00:06:33;3.10;;;2.60;;
59239;SDS011;45010;53.640;10.578;2023-05-15T00:09:34;2.67;;;2.47;;
59239;SDS011;45010;53.640;10.578;2023-05-15T00:12:34;3.47;;;2.72;;
59239;SDS011;45010;53.640;10.578;2023-05-15T00:15:35;3.63;;;2.20;;
59239;SDS011;45010;53.640;10.578;2023-05-15T00:18:36;2.30;;;2.08;;
59239;SDS011;45010;53.640;10.578;2023-05-15T00:21:36;2.50;;;2.30;;
59239;SDS011;45010;53.640;10.578;2023-05-15T00:24:36;2.45;;;2.25;;
59239;SDS011;45010;53.640;10.578;2023-05-15T00:27:37;2.78;;;2.53;;
59239;SDS011;45010;53.640;10.578;2023-05-15T00:30:37;2.20;;;2.00;;
59239;SDS011;45010;53.640;10.578;2023-05-15T00:33:37;2.85;;;2.50;;
59239;SDS011;45010;53.640;10.578;2023-05-15T00:36:38;2.70;;;2.50;;
59239;SDS011;45010;53.640;10.578;2023-05-15T00:39:38;3.75;;;2.50;;
59239;SDS011;45010;53.640;10.578;2023-05-15T00:42:39;2.20;;;2.00;;
59239;SDS011;45010;53.640;10.578;2023-05-15T00:45:40;2.47;;;2.28;;
59239;SDS011;45010;53.640;10.578;2023-05-15T00:48:41;3.08;;;2.28;;
59239;SDS011;45010;53.640;10.578;2023-05-15T00:51:42;2.53;;;2.30;;
59239;SDS011;45010;53.640;10.578;2023-05-15T00:54:42;2.67;;;2.25;;
59239;SDS011;45010;53.640;10.578;2023-05-15T00:57:43;2.50;;;2.30;;
59239;SDS011;45010;53.640;10.578;2023-05-15T01:00:44;2.60;;;2.40;;
59239;SDS011;45010;53.640;10.578;2023-05-15T01:03:47;2.50;;;2.30;;
59239;SDS011;45010;53.640;10.578;2023-05-15T01:06:47;3.85;;;2.45;;
59239;SDS011;45010;53.640;10.578;2023-05-15T01:09:48;2.40;;;2.20;;
59239;SDS011;45010;53.640;10.578;2023-05-15T01:12:49;3.45;;;2.03;;
59239;SDS011;45010;53.640;10.578;2023-05-15T01:15:53;2.42;;;2.15;;
59239;SDS011;45010;53.640;10.578;2023-05-15T01:18:54;2.53;;;2.20;;
59239;SDS011;45010;53.640;10.578;2023-05-15T01:22:18;2.42;;;2.22;;
59239;SDS011;45010;53.640;10.578;2023-05-15T01:26:21;3.35;;;2.38;;
59239;SDS011;45010;53.640;10.578;2023-05-15T01:29:29;2.40;;;2.17;;
59239;SDS011;45010;53.640;10.578;2023-05-15T01:32:46;2.35;;;2.10;;
59239;SDS011;45010;53.640;10.578;2023-05-15T01:39:14;3.30;;;2.10;;
59239;SDS011;45010;53.640;10.578;2023-05-15T01:42:22;2.17;;;1.98;;
59239;SDS011;45010;53.640;10.578;2023-05-15T01:45:29;3.05;;;2.15;;
59239;SDS011;45010;53.640;10.578;2023-05-15T01:48:31;2.40;;;2.03;;
59239;SDS011;45010;53.640;10.578;2023-05-15T01:51:33;2.10;;;1.90;;
59239;SDS011;45010;53.640;10.578;2023-05-15T01:54:36;2.35;;;2.15;;
59239;SDS011;45010;53.640;10.578;2023-05-15T01:57:38;2.35;;;2.10;;
59239;SDS011;45010;53.640;10.578;2023-05-15T02:00:42;2.42;;;2.22;;
59239;SDS011;45010;53.640;10.578;2023-05-15T02:03:43;3.08;;;2.53;;
59239;SDS011;45010;53.640;10.578;2023-05-15T02:06:45;2.33;;;2.10;;
59239;SDS011;45010;53.640;10.578;2023-05-15T02:09:46;2.30;;;2.10;;
59239;SDS011;45010;53.640;10.578;2023-05-15T02:12:47;2.25;;;2.05;;
59239;SDS011;45010;53.640;10.578;2023-05-15T02:15:49;2.13;;;1.92;;
59239;SDS011;45010;53.640;10.578;2023-05-15T02:18:49;2.08;;;1.90;;
59239;SDS011;45010;53.640;10.578;2023-05-15T02:21:51;2.40;;;2.20;;
59239;SDS011;45010;53.640;10.578;2023-05-15T02:24:51;2.10;;;1.90;;
59239;SDS011;45010;53.640;10.578;2023-05-15T02:27:56;2.60;;;1.90;;
59239;SDS011;45010;53.640;10.578;2023-05-15T02:31:00;3.38;;;2.40;;
59239;SDS011;45010;53.640;10.578;2023-05-15T02:37:37;2.38;;;2.17;;
59239;SDS011;45010;53.640;10.578;2023-05-15T02:40:39;2.20;;;2.00;;
59239;SDS011;45010;53.640;10.578;2023-05-15T02:43:39;2.47;;;2.28;;
59239;SDS011;45010;53.640;10.578;2023-05-15T02:46:41;2.40;;;2.20;;
59239;SDS011;45010;53.640;10.578;2023-05-15T02:49:41;2.00;;;1.80;;
59239;SDS011;45010;53.640;10.578;2023-05-15T02:52:42;2.65;;;2.10;;
59239;SDS011;45010;53.640;10.578;2023-05-15T02:55:42;2.63;;;2.42;;
59239;SDS011;45010;53.640;10.578;2023-05-15T02:58:43;2.60;;;2.40;;
59239;SDS011;45010;53.640;10.578;2023-05-15T03:01:43;2.55;;;2.17;;
59239;SDS011;45010;53.640;10.578;2023-05-15T03:04:43;2.25;;;2.05;;
59239;SDS011;45010;53.640;10.578;2023-05-15T03:07:44;2.20;;;2.00;;
59239;SDS011;45010;53.640;10.578;2023-05-15T03:10:45;2.10;;;1.90;;
59239;SDS011;45010;53.640;10.578;2023-05-15T03:13:45;1.88;;;1.77;;
59239;SDS011;45010;53.640;10.578;2023-05-15T03:16:45;2.20;;;2.00;;
59239;SDS011;45010;53.640;10.578;2023-05-15T03:19:46;2.17;;;1.95;;
59239;SDS011;45010;53.640;10.578;2023-05-15T03:22:46;2.55;;;2.10;;
59239;SDS011;45010;53.640;10.578;2023-05-15T03:25:46;2.25;;;2.05;;
59239;SDS011;45010;53.640;10.578;2023-05-15T03:28:47;2.30;;;2.10;;
59239;SDS011;45010;53.640;10.578;2023-05-15T03:31:47;1.98;;;1.83;;
59239;SDS011;45010;53.640;10.578;2023-05-15T03:34:47;2.25;;;2.05;;
59239;SDS011;45010;53.640;10.578;2023-05-15T03:37:48;2.45;;;2.25;;
59239;SDS011;45010;53.640;10.578;2023-05-15T03:40:48;1.92;;;1.83;;
59239;SDS011;45010;53.640;10.578;2023-05-15T03:43:48;2.33;;;2.13;;
59239;SDS011;45010;53.640;10.578;2023-05-15T03:46:49;2.08;;;1.88;;
59239;SDS011;45010;53.640;10.578;2023-05-15T03:49:49;2.15;;;1.95;;
59239;SDS011;45010;53.640;10.578;2023-05-15T03:52:49;2.10;;;1.90;;
59239;SDS011;45010;53.640;10.578;2023-05-15T03:55:50;2.97;;;2.00;;
59239;SDS011;45010;53.640;10.578;2023-05-15T03:58:50;1.90;;;1.77;;
59239;SDS011;45010;53.640;10.578;2023-05-15T04:01:50;2.42;;;2.15;;
59239;SDS011;45010;53.640;10.578;2023-05-15T04:04:51;1.95;;;1.75;;
59239;SDS011;45010;53.640;10.578;2023-05-15T04:07:51;2.22;;;2.03;;
59239;SDS011;45010;53.640;10.578;2023-05-15T04:10:51;1.75;;;1.65;;
59239;SDS011;45010;53.640;10.578;2023-05-15T04:13:52;2.10;;;1.70;;
59239;SDS011;45010;53.640;10.578;2023-05-15T04:16:52;2.05;;;1.88;;
59239;SDS011;45010;53.640;10.578;2023-05-15T04:19:53;2.10;;;1.92;;
59239;SDS011;45010;53.640;10.578;2023-05-15T04:22:53;2.50;;;2.03;;
59239;SDS011;45010;53.640;10.578;2023-05-15T04:25:53;1.88;;;1.77;;
59239;SDS011;45010;53.640;10.578;2023-05-15T04:28:54;2.15;;;1.88;;
59239;SDS011;45010;53.640;10.578;2023-05-15T04:31:56;1.90;;;1.80;;
59239;SDS011;45010;53.640;10.578;2023-05-15T04:34:56;2.10;;;1.90;;
59239;SDS011;45010;53.640;10.578;2023-05-15T04:37:56;2.13;;;1.92;;
59239;SDS011;45010;53.640;10.578;2023-05-15T04:40:56;1.92;;;1.83;;
59239;SDS011;45010;53.640;10.578;2023-05-15T04:43:57;2.30;;;2.10;;
59239;SDS011;45010;53.640;10.578;2023-05-15T04:46:57;2.45;;;2.25;;
59239;SDS011;45010;53.640;10.578;2023-05-15T04:49:57;2.10;;;1.90;;
59239;SDS011;45010;53.640;10.578;2023-05-15T04:52:58;1.92;;;1.73;;
59239;SDS011;45010;53.640;10.578;2023-05-15T04:55:58;2.33;;;2.20;;
59239;SDS011;45010;53.640;10.578;2023-05-15T04:58:58;2.63;;;2.28;;
59239;SDS011;45010;53.640;10.578;2023-05-15T05:01:59;2.15;;;1.92;;
59239;SDS011;45010;53.640;10.578;2023-05-15T05:04:59;2.88;;;1.95;;
59239;SDS011;45010;53.640;10.578;2023-05-15T05:08:00;2.10;;;1.95;;
59239;SDS011;45010;53.640;10.578;2023-05-15T05:11:00;2.17;;;1.98;;
59239;SDS011;45010;53.640;10.578;2023-05-15T05:14:00;1.88;;;1.77;;
59239;SDS011;45010;53.640;10.578;2023-05-15T05:17:00;2.17;;;1.98;;
59239;SDS011;45010;53.640;10.578;2023-05-15T05:20:01;2.22;;;2.00;;
59239;SDS011;45010;53.640;10.578;2023-05-15T05:23:02;1.95;;;1.80;;
59239;SDS011;45010;53.640;10.578;2023-05-15T05:26:02;2.05;;;1.90;;
59239;SDS011;45010;53.640;10.578;2023-05-15T05:29:02;2.03;;;1.90;;
59239;SDS011;45010;53.640;10.578;2023-05-15T05:32:03;2.13;;;2.03;;
59239;SDS011;45010;53.640;10.578;2023-05-15T05:35:04;2.45;;;2.25;;
59239;SDS011;45010;53.640;10.578;2023-05-15T05:38:04;1.73;;;1.63;;
59239;SDS011;45010;53.640;10.578;2023-05-15T05:41:05;2.05;;;1.95;;
59239;SDS011;45010;53.640;10.578;2023-05-15T05:44:05;2.17;;;1.98;;
59239;SDS011;45010;53.640;10.578;2023-05-15T05:47:05;2.00;;;1.90;;
59239;SDS011;45010;53.640;10.578;2023-05-15T05:50:06;2.17;;;1.98;;
59239;SDS011;45010;53.640;10.578;2023-05-15T05:53:07;1.92;;;1.80;;
59239;SDS011;45010;53.640;10.578;2023-05-15T05:56:07;2.28;;;2.08;;
59239;SDS011;45010;53.640;10.578;2023-05-15T05:59:07;2.40;;;1.92;;
59239;SDS011;45010;53.640;10.578;2023-05-15T06:02:08;2.00;;;1.88;;
59239;SDS011;45010;53.640;10.578;2023-05-15T06:05:09;2.33;;;1.77;;
59239;SDS011;45010;53.640;10.578;2023-05-15T06:08:09;2.38;;;2.17;;
59239;SDS011;45010;53.640;10.578;2023-05-15T06:11:10;2.30;;;2.00;;
59239;SDS011;45010;53.640;10.578;2023-05-15T06:14:10;2.20;;;2.00;;
59239;SDS011;45010;53.640;10.578;2023-05-15T06:17:10;2.25;;;2.05;;
59239;SDS011;45010;53.640;10.578;2023-05-15T06:20:11;2.22;;;2.00;;
59239;SDS011;45010;53.640;10.578;2023-05-15T06:23:11;2.30;;;2.13;;
59239;SDS011;45010;53.640;10.578;2023-05-15T06:26:12;2.20;;;1.80;;
59239;SDS011;45010;53.640;10.578;2023-05-15T06:29:12;3.13;;;2.65;;
59239;SDS011;45010;53.640;10.578;2023-05-15T06:32:12;3.58;;;2.53;;
59239;SDS011;45010;53.640;10.578;2023-05-15T06:35:13;2.63;;;2.42;;
59239;SDS011;45010;53.640;10.578;2023-05-15T06:38:13;3.40;;;2.22;;
59239;SDS011;45010;53.640;10.578;2023-05-15T06:41:13;5.97;;;3.20;;
59239;SDS011;45010;53.640;10.578;2023-05-15T06:44:13;6.00;;;3.75;;
59239;SDS011;45010;53.640;10.578;2023-05-15T06:47:14;6.35;;;3.90;;
59239;SDS011;45010;53.640;10.578;2023-05-15T06:50:15;9.30;;;4.43;;
59239;SDS011;45010;53.640;10.578;2023-05-15T06:53:15;4.63;;;4.18;;
59239;SDS011;45010;53.640;10.578;2023-05-15T06:56:16;5.50;;;4.45;;
59239;SDS011;45010;53.640;10.578;2023-05-15T06:59:17;4.88;;;4.32;;
59239;SDS011;45010;53.640;10.578;2023-05-15T07:02:17;5.70;;;4.05;;
59239;SDS011;45010;53.640;10.578;2023-05-15T07:05:17;7.15;;;4.53;;
59239;SDS011;45010;53.640;10.578;2023-05-15T07:08:18;4.47;;;3.95;;
59239;SDS011;45010;53.640;10.578;2023-05-15T07:11:18;5.20;;;3.70;;
59239;SDS011;45010;53.640;10.578;2023-05-15T07:14:19;4.97;;;3.85;;
59239;SDS011;45010;53.640;10.578;2023-05-15T07:17:19;3.88;;;3.50;;
59239;SDS011;45010;53.640;10.578;2023-05-15T07:20:19;5.30;;;3.50;;
59239;SDS011;45010;53.640;10.578;2023-05-15T07:23:20;6.90;;;3.72;;
59239;SDS011;45010;53.640;10.578;2023-05-15T07:26:20;4.72;;;3.70;;
59239;SDS011;45010;53.640;10.578;2023-05-15T07:29:21;6.40;;;3.70;;
59239;SDS011;45010;53.640;10.578;2023-05-15T07:32:21;4.90;;;3.53;;
59239;SDS011;45010;53.640;10.578;2023-05-15T07:35:22;4.95;;;3.33;;
59239;SDS011;45010;53.640;10.578;2023-05-15T07:38:22;4.05;;;3.65;;
59239;SDS011;45010;53.640;10.578;2023-05-15T07:41:23;4.07;;;3.60;;
59239;SDS011;45010;53.640;10.578;2023-05-15T07:44:23;3.88;;;3.40;;
59239;SDS011;45010;53.640;10.578;2023-05-15T07:47:23;4.03;;;3.63;;
59239;SDS011;45010;53.640;10.578;2023-05-15T07:50:24;4.35;;;3.53;;
59239;SDS011;45010;53.640;10.578;2023-05-15T07:53:24;6.00;;;3.63;;
59239;SDS011;45010;53.640;10.578;2023-05-15T07:56:25;5.53;;;3.22;;
59239;SDS011;45010;53.640;10.578;2023-05-15T07:59:25;6.22;;;3.65;;
59239;SDS011;45010;53.640;10.578;2023-05-15T08:02:26;4.95;;;3.42;;
59239;SDS011;45010;53.640;10.578;2023-05-15T08:05:26;5.05;;;3.65;;
59239;SDS011;45010;53.640;10.578;2023-05-15T08:08:27;6.03;;;3.70;;
59239;SDS011;45010;53.640;10.578;2023-05-15T08:11:28;6.03;;;3.45;;
59239;SDS011;45010;53.640;10.578;2023-05-15T08:14:28;6.30;;;3.90;;
59239;SDS011;45010;53.640;10.578;2023-05-15T08:17:29;5.60;;;3.63;;
59239;SDS011;45010;53.640;10.578;2023-05-15T08:20:29;3.78;;;3.45;;
59239;SDS011;45010;53.640;10.578;2023-05-15T08:23:29;4.78;;;3.45;;
59239;SDS011;45010;53.640;10.578;2023-05-15T08:26:30;4.53;;;3.13;;
59239;SDS011;45010;53.640;10.578;2023-05-15T08:29:30;4.85;;;3.47;;
59239;SDS011;45010;53.640;10.578;2023-05-15T08:32:31;4.32;;;3.03;;
59239;SDS011;45010;53.640;10.578;2023-05-15T08:35:32;6.00;;;3.40;;
59239;SDS011;45010;53.640;10.578;2023-05-15T08:38:32;14.95;;;7.47;;
59239;SDS011;45010;53.640;10.578;2023-05-15T08:41:35;13.30;;;6.65;;
59239;SDS011;45010;53.640;10.578;2023-05-15T08:44:40;14.55;;;6.90;;
59239;SDS011;45010;53.640;10.578;2023-05-15T08:47:40;15.43;;;6.50;;
59239;SDS011;45010;53.640;10.578;2023-05-15T08:50:42;11.05;;;5.70;;
59239;SDS011;45010;53.640;10.578;2023-05-15T08:53:43;8.48;;;5.00;;
59239;SDS011;45010;53.640;10.578;2023-05-15T08:56:45;9.82;;;5.82;;
59239;SDS011;45010;53.640;10.578;2023-05-15T08:59:45;9.05;;;4.82;;
59239;SDS011;45010;53.640;10.578;2023-05-15T09:02:46;7.97;;;4.78;;
59239;SDS011;45010;53.640;10.578;2023-05-15T09:05:46;10.10;;;4.95;;
59239;SDS011;45010;53.640;10.578;2023-05-15T09:08:47;9.10;;;4.25;;
59239;SDS011;45010;53.640;10.578;2023-05-15T09:11:48;7.18;;;3.90;;
59239;SDS011;45010;53.640;10.578;2023-05-15T09:14:49;7.50;;;4.07;;
59239;SDS011;45010;53.640;10.578;2023-05-15T09:17:50;7.25;;;4.78;;
59239;SDS011;45010;53.640;10.578;2023-05-15T09:20:51;6.05;;;3.85;;
59239;SDS011;45010;53.640;10.578;2023-05-15T09:23:52;6.35;;;3.90;;
59239;SDS011;45010;53.640;10.578;2023-05-15T09:27:03;7.25;;;3.97;;
59239;SDS011;45010;53.640;10.578;2023-05-15T09:30:09;7.38;;;4.07;;
59239;SDS011;45010;53.640;10.578;2023-05-15T09:33:10;7.25;;;4.13;;
59239;SDS011;45010;53.640;10.578;2023-05-15T09:36:11;11.32;;;3.97;;
59239;SDS011;45010;53.640;10.578;2023-05-15T09:39:23;5.35;;;3.85;;
59239;SDS011;45010;53.640;10.578;2023-05-15T09:42:24;7.68;;;4.20;;
59239;SDS011;45010;53.640;10.578;2023-05-15T09:45:24;5.88;;;3.50;;
59239;SDS011;45010;53.640;10.578;2023-05-15T09:48:26;5.93;;;3.78;;
59239;SDS011;45010;53.640;10.578;2023-05-15T09:51:27;6.78;;;3.30;;
59239;SDS011;45010;53.640;10.578;2023-05-15T09:54:28;7.47;;;3.30;;
59239;SDS011;45010;53.640;10.578;2023-05-15T09:57:30;3.97;;;3.38;;
59239;SDS011;45010;53.640;10.578;2023-05-15T10:00:31;4.43;;;3.20;;
59239;SDS011;45010;53.640;10.578;2023-05-15T10:03:32;5.43;;;3.25;;
59239;SDS011;45010;53.640;10.578;2023-05-15T10:06:45;4.63;;;3.20;;
59239;SDS011;45010;53.640;10.578;2023-05-15T10:09:46;7.78;;;3.22;;
59239;SDS011;45010;53.640;10.578;2023-05-15T10:12:48;3.85;;;3.00;;
59239;SDS011;45010;53.640;10.578;2023-05-15T10:15:49;6.25;;;3.30;;
59239;SDS011;45010;53.640;10.578;2023-05-15T10:18:51;5.22;;;2.85;;
59239;SDS011;45010;53.640;10.578;2023-05-15T10:21:52;3.10;;;2.60;;
59239;SDS011;45010;53.640;10.578;2023-05-15T10:25:15;3.50;;;3.00;;
59239;SDS011;45010;53.640;10.578;2023-05-15T10:28:32;3.60;;;3.08;;
59239;SDS011;45010;53.640;10.578;2023-05-15T10:31:34;2.78;;;2.38;;
59239;SDS011;45010;53.640;10.578;2023-05-15T10:34:37;3.47;;;3.17;;
59239;SDS011;45010;53.640;10.578;2023-05-15T10:37:38;3.15;;;2.80;;
59239;SDS011;45010;53.640;10.578;2023-05-15T10:40:39;4.28;;;3.20;;
59239;SDS011;45010;53.640;10.578;2023-05-15T10:43:40;4.03;;;2.70;;
59239;SDS011;45010;53.640;10.578;2023-05-15T10:46:41;3.70;;;2.70;;
59239;SDS011;45010;53.640;10.578;2023-05-15T10:49:42;5.13;;;2.83;;
59239;SDS011;45010;53.640;10.578;2023-05-15T10:52:42;4.80;;;2.90;;
59239;SDS011;45010;53.640;10.578;2023-05-15T10:55:42;6.55;;;2.70;;
59239;SDS011;45010;53.640;10.578;2023-05-15T10:58:48;3.50;;;3.08;;
59239;SDS011;45010;53.640;10.578;2023-05-15T11:01:49;5.93;;;3.22;;
59239;SDS011;45010;53.640;10.578;2023-05-15T11:04:54;4.28;;;3.05;;
59239;SDS011;45010;53.640;10.578;2023-05-15T11:18:01;4.82;;;2.70;;
59239;SDS011;45010;53.640;10.578;2023-05-15T11:24:03;3.15;;;2.85;;
59239;SDS011;45010;53.640;10.578;2023-05-15T11:27:04;3.22;;;2.95;;
59239;SDS011;45010;53.640;10.578;2023-05-15T11:30:05;4.45;;;2.95;;
59239;SDS011;45010;53.640;10.578;2023-05-15T11:33:21;3.80;;;3.03;;
59239;SDS011;45010;53.640;10.578;2023-05-15T11:36:22;5.93;;;2.88;;
59239;SDS011;45010;53.640;10.578;2023-05-15T11:39:23;3.63;;;3.05;;
59239;SDS011;45010;53.640;10.578;2023-05-15T11:42:24;3.13;;;2.65;;
59239;SDS011;45010;53.640;10.578;2023-05-15T11:45:36;3.63;;;2.83;;
59239;SDS011;45010;53.640;10.578;2023-05-15T11:48:44;3.05;;;2.80;;
59239;SDS011;45010;53.640;10.578;2023-05-15T11:51:48;4.60;;;3.20;;
59239;SDS011;45010;53.640;10.578;2023-05-15T11:54:50;8.05;;;3.35;;
59239;SDS011;45010;53.640;10.578;2023-05-15T11:57:50;4.60;;;2.63;;
59239;SDS011;45010;53.640;10.578;2023-05-15T12:00:51;4.50;;;2.97;;
59239;SDS011;45010;53.640;10.578;2023-05-15T12:03:52;3.25;;;2.80;;
59239;SDS011;45010;53.640;10.578;2023-05-15T12:06:53;4.20;;;2.90;;
59239;SDS011;45010;53.640;10.578;2023-05-15T12:09:53;3.13;;;2.78;;
59239;SDS011;45010;53.640;10.578;2023-05-15T12:12:54;4.40;;;2.72;;
59239;SDS011;45010;53.640;10.578;2023-05-15T12:15:54;3.47;;;2.83;;
59239;SDS011;45010;53.640;10.578;2023-05-15T12:18:55;3.78;;;3.08;;
59239;SDS011;45010;53.640;10.578;2023-05-15T12:21:56;5.35;;;2.60;;
59239;SDS011;45010;53.640;10.578;2023-05-15T12:24:57;5.00;;;3.00;;
59239;SDS011;45010;53.640;10.578;2023-05-15T12:27:59;3.40;;;3.10;;
59239;SDS011;45010;53.640;10.578;2023-05-15T12:31:01;4.78;;;3.50;;
59239;SDS011;45010;53.640;10.578;2023-05-15T12:34:01;5.43;;;3.67;;
59239;SDS011;45010;53.640;10.578;2023-05-15T12:37:01;4.60;;;3.30;;
59239;SDS011;45010;53.640;10.578;2023-05-15T12:40:03;3.70;;;3.13;;
59239;SDS011;45010;53.640;10.578;2023-05-15T12:43:11;6.70;;;3.15;;
59239;SDS011;45010;53.640;10.578;2023-05-15T12:46:12;4.47;;;3.03;;
59239;SDS011;45010;53.640;10.578;2023-05-15T12:49:19;5.68;;;3.28;;
59239;SDS011;45010;53.640;10.578;2023-05-15T12:52:20;3.50;;;3.15;;
59239;SDS011;45010;53.640;10.578;2023-05-15T12:55:21;5.25;;;3.30;;
59239;SDS011;45010;53.640;10.578;2023-05-15T12:58:22;5.25;;;3.25;;
59239;SDS011;45010;53.640;10.578;2023-05-15T13:01:22;5.18;;;3.60;;
59239;SDS011;45010;53.640;10.578;2023-05-15T13:04:25;6.60;;;2.80;;
59239;SDS011;45010;53.640;10.578;2023-05-15T13:07:25;4.50;;;3.25;;
59239;SDS011;45010;53.640;10.578;2023-05-15T13:10:26;3.42;;;3.00;;
59239;SDS011;45010;53.640;10.578;2023-05-15T13:17:07;3.53;;;3.20;;
59239;SDS011;45010;53.640;10.578;2023-05-15T13:20:08;7.75;;;3.38;;
59239;SDS011;45010;53.640;10.578;2023-05-15T13:23:09;10.38;;;3.35;;
59239;SDS011;45010;53.640;10.578;2023-05-15T13:26:11;5.75;;;3.00;;
59239;SDS011;45010;53.640;10.578;2023-05-15T13:29:11;7.00;;;3.35;;
59239;SDS011;45010;53.640;10.578;2023-05-15T13:32:12;4.20;;;2.90;;
59239;SDS011;45010;53.640;10.578;2023-05-15T13:35:12;6.75;;;3.10;;
59239;SDS011;45010;53.640;10.578;2023-05-15T13:38:12;3.17;;;2.85;;
59239;SDS011;45010;53.640;10.578;2023-05-15T13:41:13;16.75;;;4.20;;
59239;SDS011;45010;53.640;10.578;2023-05-15T13:44:13;8.70;;;3.65;;
59239;SDS011;45010;53.640;10.578;2023-05-15T13:47:14;12.32;;;3.08;;
59239;SDS011;45010;53.640;10.578;2023-05-15T13:50:14;7.13;;;3.17;;
59239;SDS011;45010;53.640;10.578;2023-05-15T13:53:15;10.73;;;4.03;;
59239;SDS011;45010;53.640;10.578;2023-05-15T13:56:15;6.30;;;3.28;;
59239;SDS011;45010;53.640;10.578;2023-05-15T13:59:16;11.85;;;4.78;;
59239;SDS011;45010;53.640;10.578;2023-05-15T14:02:16;21.40;;;7.03;;
59239;SDS011;45010;53.640;10.578;2023-05-15T14:05:17;30.52;;;9.57;;
59239;SDS011;45010;53.640;10.578;2023-05-15T14:08:17;36.72;;;9.80;;
59239;SDS011;45010;53.640;10.578;2023-05-15T14:11:17;25.30;;;10.07;;
59239;SDS011;45010;53.640;10.578;2023-05-15T14:14:18;29.80;;;10.93;;
59239;SDS011;45010;53.640;10.578;2023-05-15T14:17:18;25.00;;;10.73;;
59239;SDS011;45010;53.640;10.578;2023-05-15T14:20:18;39.88;;;11.85;;
59239;SDS011;45010;53.640;10.578;2023-05-15T14:23:19;33.58;;;11.80;;
59239;SDS011;45010;53.640;10.578;2023-05-15T14:26:19;31.58;;;12.05;;
59239;SDS011;45010;53.640;10.578;2023-05-15T14:29:20;34.92;;;11.98;;
59239;SDS011;45010;53.640;10.578;2023-05-15T14:32:21;21.83;;;9.60;;
59239;SDS011;45010;53.640;10.578;2023-05-15T14:35:22;19.23;;;8.57;;
59239;SDS011;45010;53.640;10.578;2023-05-15T14:38:23;16.58;;;7.47;;
59239;SDS011;45010;53.640;10.578;2023-05-15T14:41:23;14.57;;;7.30;;
59239;SDS011;45010;53.640;10.578;2023-05-15T14:44:23;17.77;;;6.65;;
59239;SDS011;45010;53.640;10.578;2023-05-15T14:47:24;12.48;;;6.47;;
59239;SDS011;45010;53.640;10.578;2023-05-15T14:50:26;11.43;;;5.60;;
59239;SDS011;45010;53.640;10.578;2023-05-15T14:53:27;13.60;;;5.25;;
59239;SDS011;45010;53.640;10.578;2023-05-15T14:56:27;10.60;;;5.25;;
59239;SDS011;45010;53.640;10.578;2023-05-15T14:59:27;11.32;;;5.50;;
59239;SDS011;45010;53.640;10.578;2023-05-15T15:02:28;9.15;;;4.68;;
59239;SDS011;45010;53.640;10.578;2023-05-15T15:05:28;6.40;;;4.55;;
59239;SDS011;45010;53.640;10.578;2023-05-15T15:08:28;7.60;;;4.60;;
59239;SDS011;45010;53.640;10.578;2023-05-15T15:11:29;8.27;;;4.38;;
59239;SDS011;45010;53.640;10.578;2023-05-15T15:14:29;6.03;;;4.70;;
59239;SDS011;45010;53.640;10.578;2023-05-15T15:17:30;7.85;;;4.10;;
59239;SDS011;45010;53.640;10.578;2023-05-15T15:20:30;5.65;;;3.85;;
59239;SDS011;45010;53.640;10.578;2023-05-15T15:23:31;4.18;;;3.38;;
59239;SDS011;45010;53.640;10.578;2023-05-15T15:26:31;4.03;;;3.40;;
59239;SDS011;45010;53.640;10.578;2023-05-15T15:29:31;9.05;;;3.42;;
59239;SDS011;45010;53.640;10.578;2023-05-15T15:32:32;12.40;;;4.30;;
59239;SDS011;45010;53.640;10.578;2023-05-15T15:35:33;9.00;;;3.72;;
59239;SDS011;45010;53.640;10.578;2023-05-15T15:38:34;7.18;;;3.40;;
59239;SDS011;45010;53.640;10.578;2023-05-15T15:41:36;10.25;;;3.85;;
59239;SDS011;45010;53.640;10.578;2023-05-15T15:44:36;9.05;;;3.33;;
59239;SDS011;45010;53.640;10.578;2023-05-15T15:47:37;9.27;;;3.70;;
59239;SDS011;45010;53.640;10.578;2023-05-15T15:50:37;8.98;;;3.15;;
59239;SDS011;45010;53.640;10.578;2023-05-15T15:53:37;5.85;;;3.30;;
59239;SDS011;45010;53.640;10.578;2023-05-15T15:56:38;5.78;;;3.10;;
59239;SDS011;45010;53.640;10.578;2023-05-15T15:59:39;5.72;;;3.22;;
59239;SDS011;45010;53.640;10.578;2023-05-15T16:02:40;4.63;;;3.40;;
59239;SDS011;45010;53.640;10.578;2023-05-15T16:05:40;6.28;;;3.72;;
59239;SDS011;45010;53.640;10.578;2023-05-15T16:08:40;5.25;;;3.28;;
59239;SDS011;45010;53.640;10.578;2023-05-15T16:11:41;4.72;;;3.85;;
59239;SDS011;45010;53.640;10.578;2023-05-15T16:14:41;8.45;;;4.07;;
59239;SDS011;45010;53.640;10.578;2023-05-15T16:17:42;5.35;;;3.80;;
59239;SDS011;45010;53.640;10.578;2023-05-15T16:20:42;4.53;;;3.88;;
59239;SDS011;45010;53.640;10.578;2023-05-15T16:23:43;6.20;;;4.18;;
59239;SDS011;45010;53.640;10.578;2023-05-15T16:26:44;5.82;;;4.78;;
59239;SDS011;45010;53.640;10.578;2023-05-15T16:29:44;5.60;;;4.05;;
59239;SDS011;45010;53.640;10.578;2023-05-15T16:32:45;8.25;;;4.22;;
59239;SDS011;45010;53.640;10.578;2023-05-15T16:35:45;4.55;;;3.97;;
59239;SDS011;45010;53.640;10.578;2023-05-15T16:38:46;5.57;;;4.00;;
59239;SDS011;45010;53.640;10.578;2023-05-15T16:41:46;4.45;;;3.90;;
59239;SDS011;45010;53.640;10.578;2023-05-15T16:44:47;7.10;;;4.45;;
59239;SDS011;45010;53.640;10.578;2023-05-15T16:47:47;6.28;;;3.78;;
59239;SDS011;45010;53.640;10.578;2023-05-15T16:50:47;6.60;;;4.05;;
59239;SDS011;45010;53.640;10.578;2023-05-15T16:53:48;5.70;;;3.65;;
59239;SDS011;45010;53.640;10.578;2023-05-15T16:56:48;5.07;;;3.92;;
59239;SDS011;45010;53.640;10.578;2023-05-15T16:59:48;7.07;;;3.50;;
59239;SDS011;45010;53.640;10.578;2023-05-15T17:02:49;4.45;;;3.90;;
59239;SDS011;45010;53.640;10.578;2023-05-15T17:05:49;5.07;;;3.35;;
59239;SDS011;45010;53.640;10.578;2023-05-15T17:08:50;4.78;;;3.60;;
59239;SDS011;45010;53.640;10.578;2023-05-15T17:11:50;3.83;;;3.42;;
59239;SDS011;45010;53.640;10.578;2023-05-15T17:14:50;5.50;;;3.55;;
59239;SDS011;45010;53.640;10.578;2023-05-15T17:17:51;4.30;;;3.40;;
59239;SDS011;45010;53.640;10.578;2023-05-15T17:20:51;4.45;;;3.47;;
59239;SDS011;45010;53.640;10.578;2023-05-15T17:23:51;5.60;;;3.13;;
59239;SDS011;45010;53.640;10.578;2023-05-15T17:26:53;4.00;;;3.35;;
59239;SDS011;45010;53.640;10.578;2023-05-15T17:29:53;5.38;;;3.33;;
59239;SDS011;45010;53.640;10.578;2023-05-15T17:32:53;4.95;;;3.80;;
59239;SDS011;45010;53.640;10.578;2023-05-15T17:35:54;3.55;;;2.88;;
59239;SDS011;45010;53.640;10.578;2023-05-15T17:38:54;4.53;;;3.83;;
59239;SDS011;45010;53.640;10.578;2023-05-15T17:41:55;3.58;;;3.25;;
59239;SDS011;45010;53.640;10.578;2023-05-15T17:44:55;4.50;;;3.42;;
59239;SDS011;45010;53.640;10.578;2023-05-15T17:47:56;4.70;;;3.55;;
59239;SDS011;45010;53.640;10.578;2023-05-15T17:51:02;5.72;;;3.58;;
59239;SDS011;45010;53.640;10.578;2023-05-15T17:54:02;3.92;;;3.20;;
59239;SDS011;45010;53.640;10.578;2023-05-15T17:57:03;4.10;;;3.08;;
59239;SDS011;45010;53.640;10.578;2023-05-15T18:00:03;3.50;;;3.20;;
59239;SDS011;45010;53.640;10.578;2023-05-15T18:03:06;3.38;;;3.05;;
59239;SDS011;45010;53.640;10.578;2023-05-15T18:06:06;6.22;;;3.35;;
59239;SDS011;45010;53.640;10.578;2023-05-15T18:09:07;5.25;;;3.17;;
59239;SDS011;45010;53.640;10.578;2023-05-15T18:12:08;5.15;;;3.15;;
59239;SDS011;45010;53.640;10.578;2023-05-15T18:15:08;4.68;;;2.88;;
59239;SDS011;45010;53.640;10.578;2023-05-15T18:18:09;3.85;;;3.45;;